Aérodrome :
LOGIN :

S'inscrire | Disclaimer

   EN    FR    IT 

 










Légende :    VFR   VFR Marginal   IFR   IFR Intensif   IFR Très Intensif
Visi : 
Plafond : 
>= 8 km
>= 3000ft
5 à 8 km
1000 à 3000 ft
1500m à 5 km
500 à 1000 ft
800 à 1500m
200 à 500 ft
< 800m
< 200 ft
Symboles :   Orages  Brouillard  Fortes neiges  Fortes précipitations  Vent > 20 kt
SIGMETs :   Divers  Orages  Givrage  Turbulence  Onde Orograph.  Cendres Volcan.






- Altitude de l'aérodrome : 11 ft
- Code IATA : SXL


EISG - Sligo

METARs EXPIRÉS :
  • 221800Z 24012KT 7000 FEW021 SCT027 BKN033 05/05 Q1011

TAF TAF EISG
Valide du 22 à 18h jusqu'au 23 à 03h UTC


221700Z 2218/2303 25017G28KT 9999 FEW014 SCT030
TEMPO 2218/2219 5000 SHRA SCT012 SCT018CB
BECMG 2219/2221 25012KT
TEMPO 2220/2303 5000 -RA BKN013
PROB30
TEMPO 2222/2303 4000 RA
BECMG 2223/2301 23007KT



MET'MAP, la Météo Aéronautique d'un coup d'oeil ! - Copyright ORBIFLY Décembre 2007 - Disclaimer

ORBIFLY MET'MAP TEAM :

Programmation & Développement : Alexandra Zaïnal
Sur une idée originale de : Baudouin d'Aumeries
Assistance à la programmation : Marc-Olivier Méhu
Soutien technique & logistique : Manuel Goepfert

Contact : metmap@orbifly.com




SOURCES & CREDITS :

   NOAA